createdAt,value
2022-11-21T00:01:21.901Z,12.50
2022-11-21T00:03:48.745Z,11.80
2022-11-21T00:06:16.481Z,12.43
2022-11-21T00:08:43.672Z,13.60
2022-11-21T00:11:10.690Z,12.50
2022-11-21T00:13:37.845Z,12.90
2022-11-21T00:16:06.529Z,12.37
2022-11-21T00:18:34.704Z,12.57
2022-11-21T00:21:11.307Z,12.50
2022-11-21T00:23:38.301Z,12.77
2022-11-21T00:26:09.710Z,12.70
2022-11-21T00:28:36.974Z,12.70
2022-11-21T00:31:05.264Z,12.17
2022-11-21T00:33:34.238Z,13.50
2022-11-21T00:36:07.832Z,14.03
2022-11-21T00:38:34.958Z,13.50
2022-11-21T00:41:01.712Z,12.90
2022-11-21T00:43:28.506Z,12.30
2022-11-21T00:45:55.329Z,11.97
2022-11-21T00:48:22.094Z,12.40
2022-11-21T00:50:50.061Z,12.00
2022-11-21T00:53:16.989Z,11.90
2022-11-21T00:55:43.881Z,13.20
2022-11-21T00:58:10.657Z,12.33
2022-11-21T01:00:37.451Z,12.77
2022-11-21T01:03:04.258Z,13.47
2022-11-21T01:05:33.153Z,12.30
2022-11-21T01:07:59.960Z,12.33
2022-11-21T01:10:26.724Z,12.43
2022-11-21T01:12:53.584Z,12.20
2022-11-21T01:15:20.354Z,11.63
2022-11-21T01:17:47.109Z,11.77
2022-11-21T01:20:14.299Z,12.20
2022-11-21T01:22:41.149Z,13.23
2022-11-21T01:25:08.337Z,13.03
2022-11-21T01:27:35.269Z,12.47
2022-11-21T01:30:02.126Z,12.13
2022-11-21T01:32:28.866Z,12.70
2022-11-21T01:34:55.698Z,12.37
2022-11-21T01:37:22.497Z,12.23
2022-11-21T01:39:49.279Z,12.80
2022-11-21T01:42:16.043Z,13.30
2022-11-21T01:44:49.550Z,12.70
2022-11-21T01:47:16.868Z,12.57
2022-11-21T01:49:45.333Z,11.83
2022-11-21T01:52:28.181Z,11.33
2022-11-21T01:55:00.243Z,12.17
2022-11-21T01:57:38.134Z,12.27
2022-11-21T02:00:18.681Z,12.40
2022-11-21T02:02:51.661Z,12.30
2022-11-21T02:05:23.925Z,12.03
2022-11-21T02:07:54.816Z,12.80
2022-11-21T02:10:22.963Z,13.23
2022-11-21T02:12:55.474Z,12.20
2022-11-21T02:15:27.431Z,13.33
2022-11-21T02:17:54.775Z,12.50
2022-11-21T02:20:24.246Z,12.70
2022-11-21T02:23:11.014Z,12.93
2022-11-21T02:25:41.411Z,13.00
2022-11-21T02:28:20.287Z,12.33
2022-11-21T02:30:47.113Z,12.87
2022-11-21T02:33:14.474Z,13.13
2022-11-21T02:35:41.342Z,14.47
2022-11-21T02:38:22.663Z,13.57
2022-11-21T02:41:18.975Z,12.87
2022-11-21T02:43:55.436Z,12.37
2022-11-21T02:46:22.205Z,13.17
2022-11-21T02:48:49.026Z,14.67
2022-11-21T02:51:15.781Z,14.50
2022-11-21T02:53:42.550Z,13.27
2022-11-21T02:56:09.351Z,13.87
2022-11-21T02:58:36.502Z,13.17
2022-11-21T03:01:03.372Z,13.60
2022-11-21T03:03:30.412Z,14.00
2022-11-21T03:05:57.202Z,13.67
2022-11-21T03:08:24.213Z,14.07
2022-11-21T03:10:51.044Z,13.90
2022-11-21T03:13:17.945Z,14.40
2022-11-21T03:15:44.734Z,13.87
2022-11-21T03:18:11.533Z,13.40
2022-11-21T03:20:38.357Z,14.77
2022-11-21T03:23:05.187Z,14.33
2022-11-21T03:25:31.977Z,14.37
2022-11-21T03:27:58.788Z,13.87
2022-11-21T03:30:27.304Z,13.20
2022-11-21T03:32:57.664Z,13.67
2022-11-21T03:35:25.130Z,13.53
2022-11-21T03:37:51.911Z,13.63
2022-11-21T03:40:18.738Z,14.60
2022-11-21T03:42:45.521Z,21.23
2022-11-21T03:45:12.360Z,15.13
2022-11-21T03:47:39.223Z,13.40
2022-11-21T03:50:06.449Z,14.17
2022-11-21T03:52:33.510Z,14.13
2022-11-21T03:55:00.327Z,13.77
2022-11-21T03:57:27.083Z,14.40
2022-11-21T03:59:53.920Z,13.93
2022-11-21T04:02:20.782Z,14.83
2022-11-21T04:04:47.650Z,16.63
2022-11-21T04:07:14.437Z,37.13
2022-11-21T04:09:41.220Z,37.50
2022-11-21T04:12:08.233Z,17.03
2022-11-21T04:14:35.312Z,15.30
2022-11-21T04:17:02.145Z,14.03
2022-11-21T04:19:29.001Z,15.60
2022-11-21T04:21:55.858Z,15.27
2022-11-21T04:24:22.861Z,15.37
2022-11-21T04:26:49.644Z,14.87
2022-11-21T04:29:16.609Z,14.77
2022-11-21T04:31:43.609Z,14.90
2022-11-21T04:34:10.494Z,14.40
2022-11-21T04:36:37.453Z,13.83
2022-11-21T04:39:04.352Z,64.47
2022-11-21T04:41:31.212Z,62.00
2022-11-21T04:43:58.067Z,33.33
2022-11-21T04:46:24.860Z,17.03
2022-11-21T04:48:51.636Z,15.23
2022-11-21T04:51:18.579Z,15.87
2022-11-21T04:53:45.433Z,14.93
2022-11-21T04:56:16.251Z,15.30
2022-11-21T04:58:44.619Z,15.33
2022-11-21T05:01:11.586Z,15.13
2022-11-21T05:03:38.516Z,14.40
2022-11-21T05:06:05.411Z,14.27
2022-11-21T05:08:32.200Z,15.37
2022-11-21T05:11:17.640Z,15.43
2022-11-21T05:13:44.567Z,14.13
2022-11-21T05:16:11.437Z,14.33
2022-11-21T05:18:38.223Z,14.70
2022-11-21T05:21:05.116Z,15.00
2022-11-21T05:23:31.910Z,15.13
2022-11-21T05:25:58.720Z,13.97
2022-11-21T05:28:25.539Z,14.90
2022-11-21T05:30:52.366Z,15.43
2022-11-21T05:33:20.297Z,19.27
2022-11-21T05:35:47.173Z,16.97
2022-11-21T05:38:14.023Z,17.87
2022-11-21T05:40:40.849Z,15.83
2022-11-21T05:43:27.935Z,16.47
2022-11-21T05:45:54.756Z,15.90
2022-11-21T05:48:21.589Z,15.33
2022-11-21T05:50:49.680Z,14.50
2022-11-21T05:53:16.965Z,16.33
2022-11-21T05:55:44.420Z,15.93
2022-11-21T05:58:11.667Z,16.43
2022-11-21T06:00:38.774Z,17.67
2022-11-21T06:03:25.067Z,18.67
2022-11-21T06:05:52.108Z,16.40
2022-11-21T06:08:19.282Z,16.47
2022-11-21T06:10:46.126Z,16.67
2022-11-21T06:13:24.860Z,16.77
2022-11-21T06:16:08.241Z,16.27
2022-11-21T06:18:37.178Z,17.00
2022-11-21T06:21:07.700Z,15.90
2022-11-21T06:23:35.846Z,15.97
2022-11-21T06:26:05.701Z,15.20
2022-11-21T06:28:37.828Z,15.77
2022-11-21T06:31:08.902Z,15.63
2022-11-21T06:33:36.434Z,15.57
2022-11-21T06:36:05.379Z,16.07
2022-11-21T06:38:32.642Z,16.60
2022-11-21T06:41:03.917Z,15.07
2022-11-21T06:43:30.675Z,15.63
2022-11-21T06:45:58.807Z,14.40
2022-11-21T06:48:25.803Z,15.83
2022-11-21T06:50:52.585Z,15.23
2022-11-21T06:53:19.530Z,14.93
2022-11-21T06:55:46.315Z,15.93
2022-11-21T06:58:13.098Z,15.60
2022-11-21T07:00:39.963Z,15.67
2022-11-21T07:03:06.796Z,17.10
2022-11-21T07:05:33.707Z,16.00
2022-11-21T07:08:02.134Z,16.67
2022-11-21T07:10:30.648Z,15.50
2022-11-21T07:13:20.052Z,16.63
2022-11-21T07:15:48.391Z,16.53
2022-11-21T07:18:15.687Z,16.67
2022-11-21T07:20:42.558Z,17.23
2022-11-21T07:23:09.790Z,17.70
2022-11-21T07:25:37.144Z,16.70
2022-11-21T07:28:04.837Z,16.63
2022-11-21T07:30:31.755Z,17.33
2022-11-21T07:33:00.364Z,17.43
2022-11-21T07:35:27.800Z,17.10
2022-11-21T07:37:55.111Z,17.97
2022-11-21T07:40:22.043Z,17.57
2022-11-21T07:42:49.004Z,17.73
2022-11-21T07:45:16.528Z,18.33
2022-11-21T07:47:43.606Z,17.83
2022-11-21T07:50:12.139Z,17.90
2022-11-21T07:52:39.391Z,18.30
2022-11-21T07:55:06.706Z,18.30
2022-11-21T07:57:33.643Z,17.73
2022-11-21T08:00:00.505Z,17.70
2022-11-21T08:02:28.552Z,16.77
2022-11-21T08:04:55.428Z,16.13
2022-11-21T08:07:23.795Z,18.27
2022-11-21T08:09:50.748Z,17.53
2022-11-21T08:12:17.622Z,18.60
2022-11-21T08:14:44.467Z,18.20
2022-11-21T08:17:11.271Z,16.93
2022-11-21T08:19:38.333Z,18.10
2022-11-21T08:22:05.119Z,17.50
2022-11-21T08:24:32.017Z,17.43
2022-11-21T08:26:59.374Z,17.87
2022-11-21T08:29:27.205Z,18.87
2022-11-21T08:31:54.198Z,19.80
2022-11-21T08:34:21.105Z,21.03
2022-11-21T08:36:48.123Z,20.13
2022-11-21T08:39:14.960Z,20.00
2022-11-21T08:42:00.487Z,19.97
2022-11-21T08:44:29.001Z,20.10
2022-11-21T08:46:57.044Z,20.80
2022-11-21T08:49:24.102Z,20.23
2022-11-21T08:51:51.296Z,19.80
2022-11-21T08:54:19.583Z,19.17
2022-11-21T08:56:46.525Z,19.57
2022-11-21T08:59:13.307Z,38.40
2022-11-21T09:01:40.162Z,23.13
2022-11-21T09:04:07.511Z,19.53
2022-11-21T09:06:34.993Z,38.53
2022-11-21T09:09:02.190Z,22.90
2022-11-21T09:11:29.054Z,18.77
2022-11-21T09:14:14.634Z,17.50
2022-11-21T09:17:02.180Z,18.20
2022-11-21T09:19:29.677Z,16.50
2022-11-21T09:21:57.181Z,17.17
2022-11-21T09:24:23.939Z,16.13
2022-11-21T09:26:50.711Z,16.53
2022-11-21T09:29:17.534Z,15.37
2022-11-21T09:31:47.244Z,15.07
2022-11-21T09:34:14.311Z,14.87
2022-11-21T09:36:41.164Z,15.93
2022-11-21T09:39:08.001Z,15.50
2022-11-21T09:42:08.776Z,16.00
2022-11-21T09:44:38.575Z,14.97
2022-11-21T09:47:40.300Z,31.93
2022-11-21T09:50:13.089Z,32.47
2022-11-21T09:52:47.068Z,33.27
2022-11-21T09:55:41.753Z,41.83
2022-11-21T09:58:32.706Z,14.30
2022-11-21T10:00:59.675Z,16.03
2022-11-21T10:03:31.037Z,15.20
2022-11-21T10:06:14.516Z,15.80
2022-11-21T10:08:50.608Z,13.03
2022-11-21T10:11:58.284Z,12.47
2022-11-21T10:14:55.141Z,11.23
2022-11-21T10:17:37.305Z,12.30
2022-11-21T10:20:26.811Z,11.87
2022-11-21T10:23:17.743Z,12.17
2022-11-21T10:25:56.242Z,12.83
2022-11-21T10:28:35.282Z,13.67
2022-11-21T10:31:04.361Z,13.70
2022-11-21T10:33:33.886Z,13.17
2022-11-21T10:36:21.969Z,12.43
2022-11-21T10:38:50.311Z,10.93
2022-11-21T10:41:31.203Z,11.93
2022-11-21T10:44:49.556Z,11.93
2022-11-21T10:47:27.616Z,10.17
2022-11-21T10:50:09.385Z,10.70
2022-11-21T10:52:43.619Z,10.90
2022-11-21T10:55:13.200Z,11.00
2022-11-21T10:57:47.695Z,10.50
2022-11-21T11:00:24.786Z,10.57
2022-11-21T11:03:07.126Z,11.13
2022-11-21T11:05:36.314Z,12.10
2022-11-21T11:08:14.666Z,10.00
2022-11-21T11:10:43.475Z,11.23
2022-11-21T11:13:46.945Z,10.63
2022-11-21T11:16:22.490Z,10.83
2022-11-21T11:18:55.369Z,11.03
2022-11-21T11:21:24.919Z,12.33
2022-11-21T11:23:53.503Z,10.63
2022-11-21T11:26:23.922Z,11.17
2022-11-21T11:28:51.133Z,10.60
2022-11-21T11:31:18.173Z,10.93
2022-11-21T11:33:47.976Z,11.53
2022-11-21T11:36:44.574Z,11.17
2022-11-21T11:39:21.669Z,10.53
2022-11-21T11:42:27.225Z,10.70
2022-11-21T11:45:30.314Z,10.60
2022-11-21T11:48:00.137Z,11.80
2022-11-21T11:50:49.014Z,11.23
2022-11-21T11:53:33.769Z,12.03
2022-11-21T11:56:16.909Z,12.20
2022-11-21T11:58:46.001Z,12.20
2022-11-21T12:01:36.668Z,12.17
2022-11-21T12:04:11.580Z,13.37
2022-11-21T12:10:04.495Z,12.27
2022-11-21T12:12:36.674Z,11.30
2022-11-21T12:15:33.507Z,11.97
2022-11-21T12:18:15.385Z,11.30
2022-11-21T12:21:03.492Z,11.87
2022-11-21T12:23:33.227Z,11.67
2022-11-21T12:26:27.280Z,14.10
2022-11-21T12:29:15.298Z,11.47
2022-11-21T12:31:57.110Z,10.63
2022-11-21T12:34:41.961Z,10.53
2022-11-21T12:37:38.641Z,10.83
2022-11-21T12:40:09.713Z,11.07
2022-11-21T12:43:05.755Z,10.57
2022-11-21T12:45:33.434Z,11.00
2022-11-21T12:48:56.088Z,11.30
2022-11-21T12:52:22.805Z,11.10
2022-11-21T12:55:18.662Z,10.30
2022-11-21T12:58:09.978Z,11.53
2022-11-21T13:00:49.547Z,12.03
2022-11-21T13:03:45.644Z,11.80
2022-11-21T13:06:22.319Z,11.73
2022-11-21T13:08:51.756Z,13.47
2022-11-21T13:11:59.748Z,11.93
2022-11-21T13:14:49.776Z,11.93
2022-11-21T13:17:32.158Z,12.67
2022-11-21T13:20:20.639Z,12.63
2022-11-21T13:22:48.473Z,17.73
2022-11-21T13:25:33.862Z,13.37
2022-11-21T13:28:18.719Z,10.50
2022-11-21T13:30:53.113Z,13.40
2022-11-21T13:33:35.188Z,11.27
2022-11-21T13:36:06.717Z,12.87
2022-11-21T13:38:53.890Z,11.43
2022-11-21T13:41:54.889Z,11.17
2022-11-21T13:44:33.790Z,10.63
2022-11-21T13:47:09.533Z,12.73
2022-11-21T13:50:08.566Z,11.37
2022-11-21T13:53:29.879Z,10.83
2022-11-21T13:56:12.876Z,11.50
2022-11-21T13:58:47.061Z,12.33
2022-11-21T14:01:43.834Z,13.80
2022-11-21T14:04:36.882Z,10.43
2022-11-21T14:07:30.979Z,11.53
2022-11-21T14:10:01.278Z,11.30
2022-11-21T14:12:41.082Z,11.13
2022-11-21T14:15:33.543Z,12.57
2022-11-21T14:18:02.008Z,12.93
2022-11-21T14:20:29.999Z,12.23
2022-11-21T14:23:05.723Z,13.03
2022-11-21T14:25:50.744Z,11.37
2022-11-21T14:28:27.031Z,12.87
2022-11-21T14:31:06.615Z,12.47
2022-11-21T14:33:35.319Z,13.30
2022-11-21T14:36:07.334Z,13.57
2022-11-21T14:39:29.008Z,15.23
2022-11-21T14:41:45.132Z,12.70
2022-11-21T14:44:11.863Z,12.27
2022-11-21T14:46:40.520Z,11.50
2022-11-21T14:49:16.566Z,11.40
2022-11-21T14:52:12.260Z,12.07
2022-11-21T14:55:15.022Z,11.90
2022-11-21T14:57:41.786Z,12.37
2022-11-21T15:00:29.883Z,12.33
2022-11-21T15:02:59.597Z,12.13
2022-11-21T15:06:00.257Z,12.53
2022-11-21T15:11:11.641Z,11.90
2022-11-21T15:14:06.458Z,12.47
2022-11-21T15:16:26.120Z,12.43
2022-11-21T15:18:52.931Z,12.17
2022-11-21T15:21:19.697Z,12.03
2022-11-21T15:23:47.177Z,10.90
2022-11-21T15:26:35.443Z,10.63
2022-11-21T15:29:02.274Z,11.27
2022-11-21T15:31:29.110Z,10.90
2022-11-21T15:34:33.116Z,11.13
2022-11-21T15:37:03.781Z,10.70
2022-11-21T15:39:31.201Z,10.93
2022-11-21T15:42:27.974Z,11.17
2022-11-21T15:45:24.011Z,10.47
2022-11-21T15:47:50.788Z,10.97
2022-11-21T15:50:17.782Z,11.10
2022-11-21T15:52:49.537Z,10.33
2022-11-21T15:55:26.076Z,10.23
2022-11-21T15:57:52.940Z,10.33
2022-11-21T16:00:19.836Z,10.53
2022-11-21T16:02:47.451Z,10.73
2022-11-21T16:05:15.818Z,10.30
2022-11-21T16:07:42.918Z,10.87
2022-11-21T16:10:18.399Z,11.37
2022-11-21T16:12:49.849Z,10.90
2022-11-21T16:15:16.763Z,14.43
2022-11-21T16:17:45.503Z,11.70
2022-11-21T16:20:12.716Z,11.93
2022-11-21T16:22:45.712Z,11.20
2022-11-21T16:25:14.487Z,11.20
2022-11-21T16:27:41.592Z,10.73
2022-11-21T16:30:08.776Z,10.93
2022-11-21T16:32:35.545Z,12.10
2022-11-21T16:35:02.308Z,11.37
2022-11-21T16:37:31.859Z,10.80
2022-11-21T16:39:58.639Z,10.77
2022-11-21T16:42:25.392Z,12.13
2022-11-21T16:44:52.161Z,11.43
2022-11-21T16:47:18.912Z,10.77
2022-11-21T16:49:48.276Z,11.53
2022-11-21T16:52:16.084Z,12.13
2022-11-21T16:54:42.865Z,13.17
2022-11-21T16:57:09.816Z,13.93
2022-11-21T16:59:36.841Z,14.13
2022-11-21T17:02:03.825Z,16.80
2022-11-21T17:04:31.152Z,13.07
2022-11-21T17:06:58.062Z,11.93
2022-11-21T17:09:24.858Z,14.10
2022-11-21T17:11:51.897Z,14.73
2022-11-21T17:14:18.652Z,20.07
2022-11-21T17:16:45.824Z,28.67
2022-11-21T17:19:13.277Z,33.73
2022-11-21T17:21:40.148Z,26.73
2022-11-21T17:24:07.093Z,21.40
2022-11-21T17:26:37.331Z,20.87
2022-11-21T17:29:04.935Z,18.47
2022-11-21T17:31:31.935Z,16.17
2022-11-21T17:34:00.725Z,15.40
2022-11-21T17:36:29.259Z,14.83
2022-11-21T17:38:56.229Z,14.00
2022-11-21T17:41:24.946Z,14.43
2022-11-21T17:43:56.898Z,14.90
2022-11-21T17:46:25.585Z,14.07
2022-11-21T17:48:57.157Z,13.83
2022-11-21T17:51:33.294Z,13.47
2022-11-21T17:54:01.246Z,14.63
2022-11-21T17:56:30.740Z,14.20
2022-11-21T17:58:58.056Z,17.30
2022-11-21T18:01:25.311Z,16.10
2022-11-21T18:04:00.725Z,16.20
2022-11-21T18:06:29.875Z,16.10
2022-11-21T18:08:58.605Z,15.57
2022-11-21T18:11:30.262Z,16.70
2022-11-21T18:13:58.720Z,16.67
2022-11-21T18:16:27.776Z,16.80
2022-11-21T18:18:54.893Z,16.43
2022-11-21T18:21:23.930Z,16.40
2022-11-21T18:23:52.491Z,20.83
2022-11-21T18:26:25.051Z,17.17
2022-11-21T18:29:13.433Z,16.43
2022-11-21T18:31:43.965Z,17.13
2022-11-21T18:34:12.145Z,16.37
2022-11-21T18:36:39.147Z,16.07
2022-11-21T18:39:14.117Z,15.23
2022-11-21T18:41:43.185Z,15.00
2022-11-21T18:44:10.449Z,15.10
2022-11-21T18:46:38.675Z,13.93
2022-11-21T18:49:07.777Z,14.50
2022-11-21T18:51:35.701Z,14.27
2022-11-21T18:54:08.060Z,14.90
2022-11-21T18:56:37.156Z,13.30
2022-11-21T18:59:05.999Z,13.77
2022-11-21T19:01:33.760Z,13.07
2022-11-21T19:04:00.886Z,14.67
2022-11-21T19:06:28.227Z,13.37
2022-11-21T19:08:57.089Z,13.70
2022-11-21T19:11:26.215Z,13.33
2022-11-21T19:13:54.050Z,13.80
2022-11-21T19:16:24.866Z,15.27
2022-11-21T19:21:41.573Z,11.97
2022-11-21T19:24:13.247Z,12.27
2022-11-21T19:26:40.333Z,11.90
2022-11-21T19:29:07.297Z,15.67
2022-11-21T19:31:36.663Z,13.73
2022-11-21T19:34:06.250Z,13.27
2022-11-21T19:36:33.203Z,13.00
2022-11-21T19:39:00.130Z,12.20
2022-11-21T19:41:27.005Z,11.87
2022-11-21T19:43:56.378Z,11.53
2022-11-21T19:46:28.526Z,11.20
2022-11-21T19:48:57.040Z,11.87
2022-11-21T19:51:28.133Z,10.50
2022-11-21T19:53:54.967Z,10.80
2022-11-21T19:56:23.866Z,10.63
2022-11-21T19:58:51.960Z,11.30
2022-11-21T20:01:21.667Z,10.70
2022-11-21T20:03:54.002Z,10.73
2022-11-21T20:06:24.920Z,12.00
2022-11-21T20:08:57.200Z,10.73
2022-11-21T20:11:25.792Z,11.00
2022-11-21T20:13:52.597Z,11.33
2022-11-21T20:16:22.710Z,11.83
2022-11-21T20:18:50.346Z,11.73
2022-11-21T20:21:18.221Z,11.90
2022-11-21T20:23:48.554Z,11.13
2022-11-21T20:26:17.523Z,11.90
2022-11-21T20:28:44.987Z,11.70
2022-11-21T20:31:14.528Z,11.37
2022-11-21T20:33:43.912Z,12.93
2022-11-21T20:36:16.191Z,13.87
2022-11-21T20:38:43.805Z,11.97
2022-11-21T20:41:10.716Z,12.07
2022-11-21T20:44:25.191Z,11.90
2022-11-21T20:46:24.519Z,12.33
2022-11-21T20:48:51.376Z,12.53
2022-11-21T20:52:31.467Z,14.13
2022-11-21T20:54:05.231Z,12.27
2022-11-21T20:56:34.621Z,11.20
2022-11-21T20:59:02.117Z,11.03
2022-11-21T21:01:29.294Z,12.33
2022-11-21T21:03:56.473Z,14.27
2022-11-21T21:06:26.738Z,14.17
2022-11-21T21:08:53.622Z,10.57
2022-11-21T21:11:50.321Z,10.73
2022-11-21T21:14:10.080Z,10.07
2022-11-21T21:16:36.965Z,10.33
2022-11-21T21:19:03.840Z,10.83
2022-11-21T21:21:30.929Z,10.07
2022-11-21T21:24:03.297Z,11.03
2022-11-21T21:26:41.737Z,10.93
2022-11-21T21:29:18.557Z,9.73
2022-11-21T21:31:50.993Z,10.23
2022-11-21T21:34:20.951Z,10.57
2022-11-21T21:36:48.475Z,9.90
2022-11-21T21:39:15.611Z,9.90
2022-11-21T21:41:46.732Z,10.90
2022-11-21T21:44:14.653Z,10.33
2022-11-21T21:46:41.466Z,10.43
2022-11-21T21:49:08.402Z,11.07
2022-11-21T21:51:37.148Z,9.57
2022-11-21T21:54:04.620Z,10.57
2022-11-21T21:56:31.481Z,10.30
2022-11-21T21:58:58.853Z,9.33
2022-11-21T22:01:31.042Z,10.40
2022-11-21T22:04:00.775Z,9.83
2022-11-21T22:06:28.563Z,11.03
2022-11-21T22:08:56.181Z,10.00
2022-11-21T22:11:24.974Z,10.33
2022-11-21T22:13:54.987Z,10.07
2022-11-21T22:16:22.432Z,9.50
2022-11-21T22:18:49.304Z,10.77
2022-11-21T22:21:21.313Z,11.40
2022-11-21T22:24:22.932Z,9.70
2022-11-21T22:26:35.223Z,9.43
2022-11-21T22:29:02.218Z,10.00
2022-11-21T22:31:32.606Z,10.47
2022-11-21T22:33:59.714Z,10.43
2022-11-21T22:36:26.529Z,10.47
2022-11-21T22:38:54.683Z,11.33
2022-11-21T22:41:26.557Z,10.63
2022-11-21T22:43:55.739Z,10.87
2022-11-21T22:46:23.938Z,10.20
2022-11-21T22:48:50.962Z,10.30
2022-11-21T22:51:21.290Z,11.03
2022-11-21T22:53:49.310Z,10.97
2022-11-21T22:56:18.278Z,11.03
2022-11-21T22:58:45.865Z,11.97
2022-11-21T23:01:18.317Z,11.30
2022-11-21T23:03:46.031Z,11.07
2022-11-21T23:06:14.968Z,10.33
2022-11-21T23:08:42.381Z,12.10
2022-11-21T23:11:18.572Z,11.23
2022-11-21T23:13:47.278Z,11.40
2022-11-21T23:16:15.373Z,12.80
2022-11-21T23:18:42.223Z,12.67
2022-11-21T23:21:09.615Z,11.87
2022-11-21T23:23:36.845Z,11.10
2022-11-21T23:26:04.568Z,12.53
2022-11-21T23:28:31.795Z,11.63
2022-11-21T23:30:58.958Z,12.90
2022-11-21T23:33:25.804Z,11.30
2022-11-21T23:35:52.615Z,11.83
2022-11-21T23:38:19.507Z,12.40
2022-11-21T23:40:47.439Z,11.90
2022-11-21T23:43:18.776Z,12.70
2022-11-21T23:45:53.999Z,12.63
2022-11-21T23:48:21.770Z,13.70
2022-11-21T23:50:50.701Z,12.60
2022-11-21T23:53:18.090Z,13.30
2022-11-21T23:55:45.356Z,13.13
2022-11-21T23:58:12.860Z,13.87
